sensor_id;sensor_type;location;lat;lon;timestamp;P1;durP1;ratioP1;P2;durP2;ratioP2
25481;SDS011;13395;50.752;4.268;2023-07-02T00:01:44;39.63;;;17.73;;
25481;SDS011;13395;50.752;4.268;2023-07-02T00:04:10;37.90;;;18.58;;
25481;SDS011;13395;50.752;4.268;2023-07-02T00:06:38;40.78;;;19.10;;
25481;SDS011;13395;50.752;4.268;2023-07-02T00:09:05;37.70;;;17.90;;
25481;SDS011;13395;50.752;4.268;2023-07-02T00:11:31;47.92;;;20.45;;
25481;SDS011;13395;50.752;4.268;2023-07-02T00:13:57;35.33;;;18.70;;
25481;SDS011;13395;50.752;4.268;2023-07-02T00:16:23;41.17;;;18.88;;
25481;SDS011;13395;50.752;4.268;2023-07-02T00:18:48;41.13;;;18.65;;
25481;SDS011;13395;50.752;4.268;2023-07-02T00:21:17;35.50;;;18.80;;
25481;SDS011;13395;50.752;4.268;2023-07-02T00:23:44;38.60;;;18.65;;
25481;SDS011;13395;50.752;4.268;2023-07-02T00:26:10;47.97;;;18.85;;
25481;SDS011;13395;50.752;4.268;2023-07-02T00:28:35;43.33;;;18.35;;
25481;SDS011;13395;50.752;4.268;2023-07-02T00:31:01;38.40;;;18.75;;
25481;SDS011;13395;50.752;4.268;2023-07-02T00:33:27;40.80;;;19.40;;
25481;SDS011;13395;50.752;4.268;2023-07-02T00:35:54;42.65;;;19.13;;
25481;SDS011;13395;50.752;4.268;2023-07-02T00:38:19;43.38;;;19.10;;
25481;SDS011;13395;50.752;4.268;2023-07-02T00:40:45;39.92;;;18.88;;
25481;SDS011;13395;50.752;4.268;2023-07-02T00:43:10;41.85;;;20.55;;
25481;SDS011;13395;50.752;4.268;2023-07-02T00:45:38;38.75;;;19.55;;
25481;SDS011;13395;50.752;4.268;2023-07-02T00:48:05;44.47;;;20.08;;
25481;SDS011;13395;50.752;4.268;2023-07-02T00:50:30;39.17;;;17.80;;
25481;SDS011;13395;50.752;4.268;2023-07-02T00:52:56;53.60;;;20.42;;
25481;SDS011;13395;50.752;4.268;2023-07-02T00:55:22;44.00;;;20.35;;
25481;SDS011;13395;50.752;4.268;2023-07-02T00:57:48;38.75;;;20.85;;
25481;SDS011;13395;50.752;4.268;2023-07-02T01:00:14;39.05;;;19.95;;
25481;SDS011;13395;50.752;4.268;2023-07-02T01:02:40;46.63;;;20.73;;
25481;SDS011;13395;50.752;4.268;2023-07-02T01:05:13;48.67;;;21.05;;
25481;SDS011;13395;50.752;4.268;2023-07-02T01:07:39;48.53;;;21.00;;
25481;SDS011;13395;50.752;4.268;2023-07-02T01:10:05;46.97;;;20.45;;
25481;SDS011;13395;50.752;4.268;2023-07-02T01:12:31;48.22;;;21.35;;
25481;SDS011;13395;50.752;4.268;2023-07-02T01:14:58;46.63;;;21.65;;
25481;SDS011;13395;50.752;4.268;2023-07-02T01:17:27;48.10;;;22.00;;
25481;SDS011;13395;50.752;4.268;2023-07-02T01:19:54;43.75;;;22.02;;
25481;SDS011;13395;50.752;4.268;2023-07-02T01:22:24;46.10;;;21.77;;
25481;SDS011;13395;50.752;4.268;2023-07-02T01:24:51;53.92;;;22.48;;
25481;SDS011;13395;50.752;4.268;2023-07-02T01:27:18;44.83;;;22.83;;
25481;SDS011;13395;50.752;4.268;2023-07-02T01:29:44;51.38;;;22.27;;
25481;SDS011;13395;50.752;4.268;2023-07-02T01:32:12;49.60;;;22.88;;
25481;SDS011;13395;50.752;4.268;2023-07-02T01:34:39;44.55;;;23.05;;
25481;SDS011;13395;50.752;4.268;2023-07-02T01:37:04;54.08;;;23.23;;
25481;SDS011;13395;50.752;4.268;2023-07-02T01:39:31;53.63;;;24.00;;
25481;SDS011;13395;50.752;4.268;2023-07-02T01:42:09;51.03;;;22.95;;
25481;SDS011;13395;50.752;4.268;2023-07-02T01:44:36;51.72;;;24.70;;
25481;SDS011;13395;50.752;4.268;2023-07-02T01:47:02;54.92;;;24.58;;
25481;SDS011;13395;50.752;4.268;2023-07-02T01:49:28;54.72;;;25.10;;
25481;SDS011;13395;50.752;4.268;2023-07-02T01:51:55;63.90;;;24.50;;
25481;SDS011;13395;50.752;4.268;2023-07-02T01:54:23;57.47;;;25.05;;
25481;SDS011;13395;50.752;4.268;2023-07-02T01:56:52;64.50;;;24.65;;
25481;SDS011;13395;50.752;4.268;2023-07-02T01:59:18;50.95;;;23.58;;
25481;SDS011;13395;50.752;4.268;2023-07-02T02:01:44;72.05;;;27.48;;
25481;SDS011;13395;50.752;4.268;2023-07-02T02:04:09;56.65;;;24.63;;
25481;SDS011;13395;50.752;4.268;2023-07-02T02:06:36;63.67;;;24.83;;
25481;SDS011;13395;50.752;4.268;2023-07-02T02:09:03;60.70;;;25.38;;
25481;SDS011;13395;50.752;4.268;2023-07-02T02:11:30;54.30;;;25.33;;
25481;SDS011;13395;50.752;4.268;2023-07-02T02:13:56;55.42;;;25.15;;
25481;SDS011;13395;50.752;4.268;2023-07-02T02:16:23;66.88;;;25.90;;
25481;SDS011;13395;50.752;4.268;2023-07-02T02:18:49;64.63;;;27.67;;
25481;SDS011;13395;50.752;4.268;2023-07-02T02:21:17;67.43;;;27.13;;
25481;SDS011;13395;50.752;4.268;2023-07-02T02:23:43;66.40;;;27.45;;
25481;SDS011;13395;50.752;4.268;2023-07-02T02:26:09;63.75;;;26.95;;
25481;SDS011;13395;50.752;4.268;2023-07-02T02:28:34;61.28;;;28.30;;
25481;SDS011;13395;50.752;4.268;2023-07-02T02:31:00;65.63;;;27.33;;
25481;SDS011;13395;50.752;4.268;2023-07-02T02:33:26;60.83;;;25.90;;
25481;SDS011;13395;50.752;4.268;2023-07-02T02:35:51;74.93;;;28.83;;
25481;SDS011;13395;50.752;4.268;2023-07-02T02:38:17;76.38;;;28.80;;
25481;SDS011;13395;50.752;4.268;2023-07-02T02:40:43;75.82;;;29.92;;
25481;SDS011;13395;50.752;4.268;2023-07-02T02:43:08;79.38;;;29.20;;
25481;SDS011;13395;50.752;4.268;2023-07-02T02:45:34;64.28;;;29.20;;
25481;SDS011;13395;50.752;4.268;2023-07-02T02:47:59;69.53;;;26.92;;
25481;SDS011;13395;50.752;4.268;2023-07-02T02:50:25;65.82;;;28.90;;
25481;SDS011;13395;50.752;4.268;2023-07-02T02:52:50;83.07;;;29.98;;
25481;SDS011;13395;50.752;4.268;2023-07-02T02:55:16;78.47;;;30.17;;
25481;SDS011;13395;50.752;4.268;2023-07-02T02:57:42;64.55;;;27.95;;
25481;SDS011;13395;50.752;4.268;2023-07-02T03:00:08;75.05;;;32.00;;
25481;SDS011;13395;50.752;4.268;2023-07-02T03:02:34;69.13;;;29.48;;
25481;SDS011;13395;50.752;4.268;2023-07-02T03:05:00;75.20;;;28.85;;
25481;SDS011;13395;50.752;4.268;2023-07-02T03:07:27;70.50;;;29.65;;
25481;SDS011;13395;50.752;4.268;2023-07-02T03:09:53;72.95;;;29.02;;
25481;SDS011;13395;50.752;4.268;2023-07-02T03:12:18;74.15;;;30.63;;
25481;SDS011;13395;50.752;4.268;2023-07-02T03:14:44;70.78;;;30.60;;
25481;SDS011;13395;50.752;4.268;2023-07-02T03:17:09;77.45;;;29.45;;
25481;SDS011;13395;50.752;4.268;2023-07-02T03:19:35;68.82;;;29.35;;
25481;SDS011;13395;50.752;4.268;2023-07-02T03:22:01;74.20;;;28.88;;
25481;SDS011;13395;50.752;4.268;2023-07-02T03:24:26;71.60;;;31.75;;
25481;SDS011;13395;50.752;4.268;2023-07-02T03:26:52;81.10;;;30.58;;
25481;SDS011;13395;50.752;4.268;2023-07-02T03:29:17;69.68;;;28.63;;
25481;SDS011;13395;50.752;4.268;2023-07-02T03:31:45;85.70;;;30.77;;
25481;SDS011;13395;50.752;4.268;2023-07-02T03:34:11;76.50;;;31.85;;
25481;SDS011;13395;50.752;4.268;2023-07-02T03:36:37;82.47;;;31.25;;
25481;SDS011;13395;50.752;4.268;2023-07-02T03:39:03;76.22;;;32.42;;
25481;SDS011;13395;50.752;4.268;2023-07-02T03:41:29;72.80;;;28.52;;
25481;SDS011;13395;50.752;4.268;2023-07-02T03:43:55;72.43;;;31.73;;
25481;SDS011;13395;50.752;4.268;2023-07-02T03:46:20;68.65;;;31.38;;
25481;SDS011;13395;50.752;4.268;2023-07-02T03:48:46;76.82;;;31.65;;
25481;SDS011;13395;50.752;4.268;2023-07-02T03:51:12;81.07;;;30.67;;
25481;SDS011;13395;50.752;4.268;2023-07-02T03:53:43;96.72;;;32.17;;
25481;SDS011;13395;50.752;4.268;2023-07-02T03:56:09;87.82;;;30.85;;
25481;SDS011;13395;50.752;4.268;2023-07-02T03:58:39;81.65;;;31.85;;
25481;SDS011;13395;50.752;4.268;2023-07-02T04:01:05;76.25;;;31.45;;
25481;SDS011;13395;50.752;4.268;2023-07-02T04:03:31;83.97;;;32.75;;
25481;SDS011;13395;50.752;4.268;2023-07-02T04:05:56;80.20;;;30.92;;
25481;SDS011;13395;50.752;4.268;2023-07-02T04:08:22;79.55;;;30.90;;
25481;SDS011;13395;50.752;4.268;2023-07-02T04:10:49;86.40;;;32.15;;
25481;SDS011;13395;50.752;4.268;2023-07-02T04:13:15;88.15;;;31.20;;
25481;SDS011;13395;50.752;4.268;2023-07-02T04:15:41;77.30;;;30.80;;
25481;SDS011;13395;50.752;4.268;2023-07-02T04:18:07;69.45;;;30.77;;
25481;SDS011;13395;50.752;4.268;2023-07-02T04:20:32;78.40;;;31.08;;
25481;SDS011;13395;50.752;4.268;2023-07-02T04:22:58;78.72;;;31.48;;
25481;SDS011;13395;50.752;4.268;2023-07-02T04:25:24;84.15;;;31.35;;
25481;SDS011;13395;50.752;4.268;2023-07-02T04:27:50;84.00;;;31.42;;
25481;SDS011;13395;50.752;4.268;2023-07-02T04:30:15;81.18;;;30.88;;
25481;SDS011;13395;50.752;4.268;2023-07-02T04:32:41;84.60;;;31.45;;
25481;SDS011;13395;50.752;4.268;2023-07-02T04:35:07;82.57;;;29.95;;
25481;SDS011;13395;50.752;4.268;2023-07-02T04:37:33;73.50;;;29.33;;
25481;SDS011;13395;50.752;4.268;2023-07-02T04:39:59;65.65;;;28.83;;
25481;SDS011;13395;50.752;4.268;2023-07-02T04:42:25;81.63;;;29.17;;
25481;SDS011;13395;50.752;4.268;2023-07-02T04:44:55;73.43;;;30.00;;
25481;SDS011;13395;50.752;4.268;2023-07-02T04:47:21;75.45;;;30.95;;
25481;SDS011;13395;50.752;4.268;2023-07-02T04:49:46;81.03;;;28.60;;
25481;SDS011;13395;50.752;4.268;2023-07-02T04:52:12;74.05;;;31.17;;
25481;SDS011;13395;50.752;4.268;2023-07-02T04:54:38;71.32;;;30.15;;
25481;SDS011;13395;50.752;4.268;2023-07-02T04:57:03;76.07;;;29.15;;
25481;SDS011;13395;50.752;4.268;2023-07-02T04:59:29;74.72;;;28.08;;
25481;SDS011;13395;50.752;4.268;2023-07-02T05:01:55;73.28;;;29.63;;
25481;SDS011;13395;50.752;4.268;2023-07-02T05:04:20;71.72;;;31.15;;
25481;SDS011;13395;50.752;4.268;2023-07-02T05:06:46;73.00;;;29.63;;
25481;SDS011;13395;50.752;4.268;2023-07-02T05:09:11;73.10;;;29.45;;
25481;SDS011;13395;50.752;4.268;2023-07-02T05:11:37;75.88;;;28.05;;
25481;SDS011;13395;50.752;4.268;2023-07-02T05:14:02;79.80;;;29.63;;
25481;SDS011;13395;50.752;4.268;2023-07-02T05:16:28;63.97;;;29.10;;
25481;SDS011;13395;50.752;4.268;2023-07-02T05:18:53;58.20;;;27.38;;
25481;SDS011;13395;50.752;4.268;2023-07-02T05:21:19;63.75;;;28.63;;
25481;SDS011;13395;50.752;4.268;2023-07-02T05:23:45;56.72;;;26.52;;
25481;SDS011;13395;50.752;4.268;2023-07-02T05:26:11;67.18;;;28.08;;
25481;SDS011;13395;50.752;4.268;2023-07-02T05:28:36;56.35;;;27.13;;
25481;SDS011;13395;50.752;4.268;2023-07-02T05:31:02;62.20;;;27.73;;
25481;SDS011;13395;50.752;4.268;2023-07-02T05:33:27;68.68;;;29.45;;
25481;SDS011;13395;50.752;4.268;2023-07-02T05:35:53;60.38;;;27.90;;
25481;SDS011;13395;50.752;4.268;2023-07-02T05:38:18;79.55;;;29.83;;
25481;SDS011;13395;50.752;4.268;2023-07-02T05:40:45;66.93;;;27.85;;
25481;SDS011;13395;50.752;4.268;2023-07-02T05:43:11;61.80;;;27.70;;
25481;SDS011;13395;50.752;4.268;2023-07-02T05:45:37;65.80;;;29.55;;
25481;SDS011;13395;50.752;4.268;2023-07-02T05:48:02;68.65;;;27.27;;
25481;SDS011;13395;50.752;4.268;2023-07-02T05:50:28;72.85;;;28.98;;
25481;SDS011;13395;50.752;4.268;2023-07-02T05:52:54;63.47;;;28.48;;
25481;SDS011;13395;50.752;4.268;2023-07-02T05:55:19;66.50;;;28.65;;
25481;SDS011;13395;50.752;4.268;2023-07-02T05:57:45;62.47;;;28.65;;
25481;SDS011;13395;50.752;4.268;2023-07-02T06:00:11;63.20;;;27.60;;
25481;SDS011;13395;50.752;4.268;2023-07-02T06:02:38;68.43;;;27.83;;
25481;SDS011;13395;50.752;4.268;2023-07-02T06:05:04;65.80;;;26.35;;
25481;SDS011;13395;50.752;4.268;2023-07-02T06:07:30;57.88;;;28.13;;
25481;SDS011;13395;50.752;4.268;2023-07-02T06:09:55;52.10;;;25.52;;
25481;SDS011;13395;50.752;4.268;2023-07-02T06:12:21;61.38;;;27.10;;
25481;SDS011;13395;50.752;4.268;2023-07-02T06:14:50;64.93;;;28.02;;
25481;SDS011;13395;50.752;4.268;2023-07-02T06:17:16;67.45;;;26.80;;
25481;SDS011;13395;50.752;4.268;2023-07-02T06:19:41;60.03;;;25.88;;
25481;SDS011;13395;50.752;4.268;2023-07-02T06:22:07;61.88;;;25.75;;
25481;SDS011;13395;50.752;4.268;2023-07-02T06:24:32;59.70;;;25.85;;
25481;SDS011;13395;50.752;4.268;2023-07-02T06:26:58;61.13;;;27.40;;
25481;SDS011;13395;50.752;4.268;2023-07-02T06:29:24;58.03;;;25.70;;
25481;SDS011;13395;50.752;4.268;2023-07-02T06:31:49;56.22;;;24.60;;
25481;SDS011;13395;50.752;4.268;2023-07-02T06:34:16;58.95;;;25.60;;
25481;SDS011;13395;50.752;4.268;2023-07-02T06:36:42;53.55;;;24.92;;
25481;SDS011;13395;50.752;4.268;2023-07-02T06:39:07;50.28;;;24.05;;
25481;SDS011;13395;50.752;4.268;2023-07-02T06:41:36;47.33;;;24.27;;
25481;SDS011;13395;50.752;4.268;2023-07-02T06:44:02;59.90;;;23.85;;
25481;SDS011;13395;50.752;4.268;2023-07-02T06:46:28;44.55;;;23.75;;
25481;SDS011;13395;50.752;4.268;2023-07-02T06:48:54;50.15;;;23.25;;
25481;SDS011;13395;50.752;4.268;2023-07-02T06:51:20;48.63;;;22.45;;
25481;SDS011;13395;50.752;4.268;2023-07-02T06:53:46;37.13;;;21.25;;
25481;SDS011;13395;50.752;4.268;2023-07-02T06:56:12;39.38;;;19.85;;
25481;SDS011;13395;50.752;4.268;2023-07-02T06:58:39;42.63;;;21.23;;
25481;SDS011;13395;50.752;4.268;2023-07-02T07:01:06;36.35;;;18.38;;
25481;SDS011;13395;50.752;4.268;2023-07-02T07:03:33;45.33;;;20.25;;
25481;SDS011;13395;50.752;4.268;2023-07-02T07:05:59;40.50;;;19.70;;
25481;SDS011;13395;50.752;4.268;2023-07-02T07:08:25;38.97;;;19.23;;
25481;SDS011;13395;50.752;4.268;2023-07-02T07:10:50;38.10;;;19.73;;
25481;SDS011;13395;50.752;4.268;2023-07-02T07:13:16;43.58;;;20.45;;
25481;SDS011;13395;50.752;4.268;2023-07-02T07:15:41;40.85;;;20.38;;
25481;SDS011;13395;50.752;4.268;2023-07-02T07:18:08;41.47;;;20.58;;
25481;SDS011;13395;50.752;4.268;2023-07-02T07:20:34;36.85;;;18.80;;
25481;SDS011;13395;50.752;4.268;2023-07-02T07:22:59;44.88;;;19.35;;
25481;SDS011;13395;50.752;4.268;2023-07-02T07:25:26;34.97;;;18.08;;
25481;SDS011;13395;50.752;4.268;2023-07-02T07:27:52;35.38;;;18.15;;
25481;SDS011;13395;50.752;4.268;2023-07-02T07:30:18;33.42;;;17.10;;
25481;SDS011;13395;50.752;4.268;2023-07-02T07:32:47;36.95;;;17.00;;
25481;SDS011;13395;50.752;4.268;2023-07-02T07:35:22;31.15;;;16.33;;
25481;SDS011;13395;50.752;4.268;2023-07-02T07:37:47;40.63;;;17.05;;
25481;SDS011;13395;50.752;4.268;2023-07-02T07:40:14;30.38;;;16.60;;
25481;SDS011;13395;50.752;4.268;2023-07-02T07:42:40;31.85;;;16.55;;
25481;SDS011;13395;50.752;4.268;2023-07-02T07:45:07;33.47;;;17.42;;
25481;SDS011;13395;50.752;4.268;2023-07-02T07:47:34;36.70;;;16.67;;
25481;SDS011;13395;50.752;4.268;2023-07-02T07:49:59;37.17;;;18.52;;
25481;SDS011;13395;50.752;4.268;2023-07-02T07:52:25;34.28;;;17.17;;
25481;SDS011;13395;50.752;4.268;2023-07-02T07:54:50;38.53;;;17.75;;
25481;SDS011;13395;50.752;4.268;2023-07-02T07:57:16;33.80;;;17.63;;
25481;SDS011;13395;50.752;4.268;2023-07-02T07:59:42;37.35;;;17.20;;
25481;SDS011;13395;50.752;4.268;2023-07-02T08:02:07;34.83;;;17.02;;
25481;SDS011;13395;50.752;4.268;2023-07-02T08:04:34;32.03;;;16.67;;
25481;SDS011;13395;50.752;4.268;2023-07-02T08:06:59;32.65;;;17.77;;
25481;SDS011;13395;50.752;4.268;2023-07-02T08:09:25;42.80;;;16.58;;
25481;SDS011;13395;50.752;4.268;2023-07-02T08:11:50;37.97;;;15.77;;
25481;SDS011;13395;50.752;4.268;2023-07-02T08:14:16;30.77;;;15.57;;
25481;SDS011;13395;50.752;4.268;2023-07-02T08:16:45;33.10;;;17.25;;
25481;SDS011;13395;50.752;4.268;2023-07-02T08:19:10;31.73;;;17.17;;
25481;SDS011;13395;50.752;4.268;2023-07-02T08:21:36;34.35;;;17.10;;
25481;SDS011;13395;50.752;4.268;2023-07-02T08:24:02;33.28;;;16.90;;
25481;SDS011;13395;50.752;4.268;2023-07-02T08:26:28;34.22;;;15.27;;
25481;SDS011;13395;50.752;4.268;2023-07-02T08:28:54;30.38;;;15.65;;
25481;SDS011;13395;50.752;4.268;2023-07-02T08:31:19;34.25;;;15.85;;
25481;SDS011;13395;50.752;4.268;2023-07-02T08:33:46;30.77;;;14.82;;
25481;SDS011;13395;50.752;4.268;2023-07-02T08:36:12;30.95;;;16.05;;
25481;SDS011;13395;50.752;4.268;2023-07-02T08:38:41;35.30;;;15.52;;
25481;SDS011;13395;50.752;4.268;2023-07-02T08:41:08;33.88;;;15.15;;
25481;SDS011;13395;50.752;4.268;2023-07-02T08:43:34;33.35;;;16.17;;
25481;SDS011;13395;50.752;4.268;2023-07-02T08:46:00;31.17;;;14.40;;
25481;SDS011;13395;50.752;4.268;2023-07-02T08:48:29;31.75;;;14.55;;
25481;SDS011;13395;50.752;4.268;2023-07-02T08:50:55;30.77;;;14.80;;
25481;SDS011;13395;50.752;4.268;2023-07-02T08:53:21;38.30;;;16.00;;
25481;SDS011;13395;50.752;4.268;2023-07-02T08:55:54;24.83;;;14.40;;
25481;SDS011;13395;50.752;4.268;2023-07-02T08:58:21;37.50;;;16.48;;
25481;SDS011;13395;50.752;4.268;2023-07-02T09:01:06;30.60;;;15.02;;
25481;SDS011;13395;50.752;4.268;2023-07-02T09:03:39;29.58;;;15.38;;
25481;SDS011;13395;50.752;4.268;2023-07-02T09:06:05;26.75;;;13.98;;
25481;SDS011;13395;50.752;4.268;2023-07-02T09:08:32;26.38;;;13.38;;
25481;SDS011;13395;50.752;4.268;2023-07-02T09:11:07;33.05;;;13.52;;
25481;SDS011;13395;50.752;4.268;2023-07-02T09:13:41;28.98;;;14.15;;
25481;SDS011;13395;50.752;4.268;2023-07-02T09:19:05;31.80;;;13.88;;
25481;SDS011;13395;50.752;4.268;2023-07-02T09:21:41;32.33;;;15.45;;
25481;SDS011;13395;50.752;4.268;2023-07-02T09:24:15;35.80;;;13.60;;
25481;SDS011;13395;50.752;4.268;2023-07-02T09:26:45;28.60;;;13.50;;
25481;SDS011;13395;50.752;4.268;2023-07-02T09:29:16;32.33;;;13.10;;
25481;SDS011;13395;50.752;4.268;2023-07-02T09:31:47;26.00;;;12.35;;
25481;SDS011;13395;50.752;4.268;2023-07-02T09:34:13;32.67;;;13.75;;
25481;SDS011;13395;50.752;4.268;2023-07-02T09:36:39;36.15;;;13.50;;
25481;SDS011;13395;50.752;4.268;2023-07-02T09:39:11;32.35;;;13.75;;
25481;SDS011;13395;50.752;4.268;2023-07-02T09:41:38;29.20;;;12.95;;
25481;SDS011;13395;50.752;4.268;2023-07-02T09:44:06;24.13;;;12.45;;
25481;SDS011;13395;50.752;4.268;2023-07-02T09:46:32;25.42;;;13.43;;
25481;SDS011;13395;50.752;4.268;2023-07-02T09:49:01;26.67;;;12.25;;
25481;SDS011;13395;50.752;4.268;2023-07-02T09:51:26;26.65;;;13.13;;
25481;SDS011;13395;50.752;4.268;2023-07-02T09:53:52;26.20;;;13.25;;
25481;SDS011;13395;50.752;4.268;2023-07-02T09:56:18;29.05;;;13.70;;
25481;SDS011;13395;50.752;4.268;2023-07-02T09:58:46;28.30;;;13.02;;
25481;SDS011;13395;50.752;4.268;2023-07-02T10:01:12;24.45;;;12.45;;
25481;SDS011;13395;50.752;4.268;2023-07-02T10:03:37;29.50;;;13.88;;
25481;SDS011;13395;50.752;4.268;2023-07-02T10:06:03;31.95;;;12.25;;
25481;SDS011;13395;50.752;4.268;2023-07-02T10:08:30;26.67;;;13.63;;
25481;SDS011;13395;50.752;4.268;2023-07-02T10:11:08;24.27;;;12.82;;
25481;SDS011;13395;50.752;4.268;2023-07-02T10:13:35;23.75;;;12.40;;
25481;SDS011;13395;50.752;4.268;2023-07-02T10:16:01;23.08;;;11.73;;
25481;SDS011;13395;50.752;4.268;2023-07-02T10:18:27;27.23;;;12.35;;
25481;SDS011;13395;50.752;4.268;2023-07-02T10:20:53;31.52;;;12.85;;
25481;SDS011;13395;50.752;4.268;2023-07-02T10:23:18;24.83;;;12.70;;
25481;SDS011;13395;50.752;4.268;2023-07-02T10:25:44;26.42;;;13.18;;
25481;SDS011;13395;50.752;4.268;2023-07-02T10:28:22;24.70;;;11.73;;
25481;SDS011;13395;50.752;4.268;2023-07-02T10:30:51;27.17;;;13.00;;
25481;SDS011;13395;50.752;4.268;2023-07-02T10:33:18;23.83;;;13.50;;
25481;SDS011;13395;50.752;4.268;2023-07-02T10:35:48;32.42;;;13.88;;
25481;SDS011;13395;50.752;4.268;2023-07-02T10:38:24;21.13;;;11.95;;
25481;SDS011;13395;50.752;4.268;2023-07-02T10:40:54;29.20;;;12.75;;
25481;SDS011;13395;50.752;4.268;2023-07-02T10:43:25;30.38;;;13.70;;
25481;SDS011;13395;50.752;4.268;2023-07-02T10:45:52;24.65;;;13.13;;
25481;SDS011;13395;50.752;4.268;2023-07-02T10:48:18;21.88;;;12.32;;
25481;SDS011;13395;50.752;4.268;2023-07-02T10:50:43;23.73;;;13.13;;
25481;SDS011;13395;50.752;4.268;2023-07-02T10:53:14;25.50;;;12.57;;
25481;SDS011;13395;50.752;4.268;2023-07-02T10:55:41;26.60;;;11.55;;
25481;SDS011;13395;50.752;4.268;2023-07-02T10:58:07;23.05;;;12.30;;
25481;SDS011;13395;50.752;4.268;2023-07-02T11:00:47;22.88;;;12.38;;
25481;SDS011;13395;50.752;4.268;2023-07-02T11:03:20;23.42;;;11.55;;
25481;SDS011;13395;50.752;4.268;2023-07-02T11:05:46;25.30;;;11.30;;
25481;SDS011;13395;50.752;4.268;2023-07-02T11:08:13;24.67;;;12.73;;
25481;SDS011;13395;50.752;4.268;2023-07-02T11:10:39;25.60;;;11.93;;
25481;SDS011;13395;50.752;4.268;2023-07-02T11:13:14;20.15;;;10.70;;
25481;SDS011;13395;50.752;4.268;2023-07-02T11:15:41;16.73;;;9.63;;
25481;SDS011;13395;50.752;4.268;2023-07-02T11:18:10;26.63;;;10.68;;
25481;SDS011;13395;50.752;4.268;2023-07-02T11:20:37;22.48;;;10.73;;
25481;SDS011;13395;50.752;4.268;2023-07-02T11:23:04;25.17;;;11.27;;
25481;SDS011;13395;50.752;4.268;2023-07-02T11:25:30;20.17;;;10.93;;
25481;SDS011;13395;50.752;4.268;2023-07-02T11:28:05;18.48;;;10.02;;
25481;SDS011;13395;50.752;4.268;2023-07-02T11:30:31;18.67;;;10.85;;
25481;SDS011;13395;50.752;4.268;2023-07-02T11:32:56;26.60;;;11.63;;
25481;SDS011;13395;50.752;4.268;2023-07-02T11:35:22;23.88;;;10.52;;
25481;SDS011;13395;50.752;4.268;2023-07-02T11:38:00;24.75;;;11.65;;
25481;SDS011;13395;50.752;4.268;2023-07-02T11:40:26;24.63;;;11.45;;
25481;SDS011;13395;50.752;4.268;2023-07-02T11:42:51;23.85;;;11.63;;
25481;SDS011;13395;50.752;4.268;2023-07-02T11:45:17;23.27;;;10.75;;
25481;SDS011;13395;50.752;4.268;2023-07-02T11:47:42;21.98;;;10.40;;
25481;SDS011;13395;50.752;4.268;2023-07-02T11:50:08;18.02;;;10.93;;
25481;SDS011;13395;50.752;4.268;2023-07-02T11:52:34;25.40;;;11.20;;
25481;SDS011;13395;50.752;4.268;2023-07-02T11:54:59;19.98;;;10.48;;
25481;SDS011;13395;50.752;4.268;2023-07-02T11:57:25;21.50;;;11.60;;
25481;SDS011;13395;50.752;4.268;2023-07-02T11:59:50;22.70;;;11.05;;
25481;SDS011;13395;50.752;4.268;2023-07-02T12:02:17;19.40;;;11.40;;
25481;SDS011;13395;50.752;4.268;2023-07-02T12:04:43;15.75;;;10.68;;
25481;SDS011;13395;50.752;4.268;2023-07-02T12:07:09;24.42;;;11.52;;
25481;SDS011;13395;50.752;4.268;2023-07-02T12:09:35;24.33;;;10.95;;
25481;SDS011;13395;50.752;4.268;2023-07-02T12:12:01;21.52;;;10.20;;
25481;SDS011;13395;50.752;4.268;2023-07-02T12:14:27;21.13;;;11.10;;
25481;SDS011;13395;50.752;4.268;2023-07-02T12:16:53;20.15;;;10.82;;
25481;SDS011;13395;50.752;4.268;2023-07-02T12:19:18;16.92;;;10.20;;
25481;SDS011;13395;50.752;4.268;2023-07-02T12:21:44;20.67;;;10.00;;
25481;SDS011;13395;50.752;4.268;2023-07-02T12:24:09;21.52;;;10.88;;
25481;SDS011;13395;50.752;4.268;2023-07-02T12:26:36;25.42;;;10.93;;
25481;SDS011;13395;50.752;4.268;2023-07-02T12:29:01;20.30;;;9.65;;
25481;SDS011;13395;50.752;4.268;2023-07-02T12:31:28;25.00;;;9.63;;
25481;SDS011;13395;50.752;4.268;2023-07-02T12:33:55;15.98;;;8.85;;
25481;SDS011;13395;50.752;4.268;2023-07-02T12:36:20;21.63;;;10.00;;
25481;SDS011;13395;50.752;4.268;2023-07-02T12:38:46;21.35;;;11.00;;
25481;SDS011;13395;50.752;4.268;2023-07-02T12:41:11;23.80;;;9.65;;
25481;SDS011;13395;50.752;4.268;2023-07-02T12:43:37;17.85;;;9.48;;
25481;SDS011;13395;50.752;4.268;2023-07-02T12:46:02;18.60;;;9.77;;
25481;SDS011;13395;50.752;4.268;2023-07-02T12:48:28;19.25;;;9.73;;
25481;SDS011;13395;50.752;4.268;2023-07-02T12:50:54;12.57;;;9.13;;
25481;SDS011;13395;50.752;4.268;2023-07-02T12:53:21;16.48;;;8.75;;
25481;SDS011;13395;50.752;4.268;2023-07-02T12:55:47;15.15;;;8.45;;
25481;SDS011;13395;50.752;4.268;2023-07-02T12:58:12;19.48;;;9.98;;
25481;SDS011;13395;50.752;4.268;2023-07-02T13:00:38;19.23;;;9.70;;
25481;SDS011;13395;50.752;4.268;2023-07-02T13:03:04;20.80;;;8.68;;
25481;SDS011;13395;50.752;4.268;2023-07-02T13:05:29;16.45;;;8.60;;
25481;SDS011;13395;50.752;4.268;2023-07-02T13:07:55;23.05;;;9.75;;
25481;SDS011;13395;50.752;4.268;2023-07-02T13:10:21;17.02;;;8.48;;
25481;SDS011;13395;50.752;4.268;2023-07-02T13:12:46;29.50;;;9.27;;
25481;SDS011;13395;50.752;4.268;2023-07-02T13:15:12;22.85;;;9.00;;
25481;SDS011;13395;50.752;4.268;2023-07-02T13:17:37;21.15;;;8.90;;
25481;SDS011;13395;50.752;4.268;2023-07-02T13:20:03;17.58;;;9.02;;
25481;SDS011;13395;50.752;4.268;2023-07-02T13:22:30;16.73;;;9.32;;
25481;SDS011;13395;50.752;4.268;2023-07-02T13:24:55;15.50;;;8.65;;
25481;SDS011;13395;50.752;4.268;2023-07-02T13:27:21;17.33;;;8.05;;
25481;SDS011;13395;50.752;4.268;2023-07-02T13:29:47;21.10;;;9.45;;
25481;SDS011;13395;50.752;4.268;2023-07-02T13:32:12;18.40;;;8.82;;
25481;SDS011;13395;50.752;4.268;2023-07-02T13:34:38;19.90;;;9.10;;
25481;SDS011;13395;50.752;4.268;2023-07-02T13:37:04;19.70;;;8.75;;
25481;SDS011;13395;50.752;4.268;2023-07-02T13:39:30;19.98;;;9.40;;
25481;SDS011;13395;50.752;4.268;2023-07-02T13:41:55;17.05;;;8.55;;
25481;SDS011;13395;50.752;4.268;2023-07-02T13:44:21;18.48;;;8.73;;
25481;SDS011;13395;50.752;4.268;2023-07-02T13:46:47;14.77;;;7.88;;
25481;SDS011;13395;50.752;4.268;2023-07-02T13:49:14;18.13;;;8.32;;
25481;SDS011;13395;50.752;4.268;2023-07-02T13:51:40;20.70;;;8.50;;
25481;SDS011;13395;50.752;4.268;2023-07-02T13:54:05;21.48;;;8.90;;
25481;SDS011;13395;50.752;4.268;2023-07-02T13:56:31;18.98;;;8.60;;
25481;SDS011;13395;50.752;4.268;2023-07-02T14:01:22;23.08;;;9.63;;
25481;SDS011;13395;50.752;4.268;2023-07-02T14:03:49;16.52;;;7.90;;
25481;SDS011;13395;50.752;4.268;2023-07-02T14:06:15;18.50;;;7.95;;
25481;SDS011;13395;50.752;4.268;2023-07-02T14:08:40;18.50;;;8.55;;
25481;SDS011;13395;50.752;4.268;2023-07-02T14:11:06;22.05;;;10.13;;
25481;SDS011;13395;50.752;4.268;2023-07-02T14:13:32;22.40;;;9.57;;
25481;SDS011;13395;50.752;4.268;2023-07-02T14:15:58;24.48;;;8.85;;
25481;SDS011;13395;50.752;4.268;2023-07-02T14:18:24;22.63;;;9.93;;
25481;SDS011;13395;50.752;4.268;2023-07-02T14:20:50;24.08;;;9.90;;
25481;SDS011;13395;50.752;4.268;2023-07-02T14:23:15;19.10;;;9.43;;
25481;SDS011;13395;50.752;4.268;2023-07-02T14:25:44;20.55;;;9.07;;